sensor_id;sensor_type;location;lat;lon;timestamp;temperature;humidity
19680;DHT22;9989;48.962;9.182;2022-07-19T00:01:28;21.50;78.00
19680;DHT22;9989;48.962;9.182;2022-07-19T00:03:55;21.50;78.20
19680;DHT22;9989;48.962;9.182;2022-07-19T00:06:21;21.40;78.40
19680;DHT22;9989;48.962;9.182;2022-07-19T00:08:46;21.40;78.80
19680;DHT22;9989;48.962;9.182;2022-07-19T00:11:12;21.40;79.20
19680;DHT22;9989;48.962;9.182;2022-07-19T00:13:37;21.40;79.20
19680;DHT22;9989;48.962;9.182;2022-07-19T00:16:03;21.40;79.60
19680;DHT22;9989;48.962;9.182;2022-07-19T00:18:29;21.40;79.80
19680;DHT22;9989;48.962;9.182;2022-07-19T00:20:54;21.40;80.30
19680;DHT22;9989;48.962;9.182;2022-07-19T00:23:20;21.30;80.70
19680;DHT22;9989;48.962;9.182;2022-07-19T00:25:45;21.30;81.00
19680;DHT22;9989;48.962;9.182;2022-07-19T00:28:11;21.30;81.10
19680;DHT22;9989;48.962;9.182;2022-07-19T00:30:36;21.30;81.20
19680;DHT22;9989;48.962;9.182;2022-07-19T00:33:02;21.30;81.70
19680;DHT22;9989;48.962;9.182;2022-07-19T00:35:30;21.20;82.00
19680;DHT22;9989;48.962;9.182;2022-07-19T00:37:55;21.20;83.20
19680;DHT22;9989;48.962;9.182;2022-07-19T00:40:24;21.10;82.70
19680;DHT22;9989;48.962;9.182;2022-07-19T00:42:51;21.10;83.00
19680;DHT22;9989;48.962;9.182;2022-07-19T00:45:16;21.00;83.20
19680;DHT22;9989;48.962;9.182;2022-07-19T00:47:42;21.00;83.40
19680;DHT22;9989;48.962;9.182;2022-07-19T00:50:08;21.00;84.00
19680;DHT22;9989;48.962;9.182;2022-07-19T00:52:34;21.00;83.10
19680;DHT22;9989;48.962;9.182;2022-07-19T00:55:00;21.00;83.30
19680;DHT22;9989;48.962;9.182;2022-07-19T00:57:26;21.00;83.50
19680;DHT22;9989;48.962;9.182;2022-07-19T00:59:53;21.00;83.60
19680;DHT22;9989;48.962;9.182;2022-07-19T01:02:20;20.90;83.90
19680;DHT22;9989;48.962;9.182;2022-07-19T01:04:46;20.90;84.00
19680;DHT22;9989;48.962;9.182;2022-07-19T01:07:13;20.90;83.70
19680;DHT22;9989;48.962;9.182;2022-07-19T01:09:40;20.80;84.10
19680;DHT22;9989;48.962;9.182;2022-07-19T01:12:06;20.80;84.30
19680;DHT22;9989;48.962;9.182;2022-07-19T01:14:32;20.80;84.60
19680;DHT22;9989;48.962;9.182;2022-07-19T01:17:01;20.80;84.40
19680;DHT22;9989;48.962;9.182;2022-07-19T01:19:26;20.80;84.60
19680;DHT22;9989;48.962;9.182;2022-07-19T01:21:52;20.80;83.90
19680;DHT22;9989;48.962;9.182;2022-07-19T01:24:18;20.80;84.20
19680;DHT22;9989;48.962;9.182;2022-07-19T01:26:43;20.80;84.80
19680;DHT22;9989;48.962;9.182;2022-07-19T01:29:14;20.70;85.20
19680;DHT22;9989;48.962;9.182;2022-07-19T01:31:40;20.60;85.60
19680;DHT22;9989;48.962;9.182;2022-07-19T01:34:06;20.50;86.20
19680;DHT22;9989;48.962;9.182;2022-07-19T01:36:31;20.50;87.10
19680;DHT22;9989;48.962;9.182;2022-07-19T01:38:57;20.50;86.40
19680;DHT22;9989;48.962;9.182;2022-07-19T01:41:22;20.40;86.80
19680;DHT22;9989;48.962;9.182;2022-07-19T01:43:48;20.50;86.80
19680;DHT22;9989;48.962;9.182;2022-07-19T01:46:14;20.40;86.70
19680;DHT22;9989;48.962;9.182;2022-07-19T01:48:39;20.40;87.00
19680;DHT22;9989;48.962;9.182;2022-07-19T01:51:05;20.30;87.30
19680;DHT22;9989;48.962;9.182;2022-07-19T01:53:30;20.30;87.70
19680;DHT22;9989;48.962;9.182;2022-07-19T01:55:56;20.20;88.00
19680;DHT22;9989;48.962;9.182;2022-07-19T01:58:21;20.20;88.00
19680;DHT22;9989;48.962;9.182;2022-07-19T02:00:47;20.30;88.20
19680;DHT22;9989;48.962;9.182;2022-07-19T02:03:13;20.30;87.90
19680;DHT22;9989;48.962;9.182;2022-07-19T02:05:38;20.30;87.90
19680;DHT22;9989;48.962;9.182;2022-07-19T02:08:04;20.20;88.10
19680;DHT22;9989;48.962;9.182;2022-07-19T02:10:30;20.10;88.50
19680;DHT22;9989;48.962;9.182;2022-07-19T02:12:55;20.00;88.90
19680;DHT22;9989;48.962;9.182;2022-07-19T02:15:21;19.90;89.20
19680;DHT22;9989;48.962;9.182;2022-07-19T02:17:46;19.80;89.60
19680;DHT22;9989;48.962;9.182;2022-07-19T02:20:12;19.70;90.00
19680;DHT22;9989;48.962;9.182;2022-07-19T02:22:38;19.70;90.10
19680;DHT22;9989;48.962;9.182;2022-07-19T02:25:04;19.60;90.20
19680;DHT22;9989;48.962;9.182;2022-07-19T02:27:30;19.60;90.30
19680;DHT22;9989;48.962;9.182;2022-07-19T02:29:55;19.60;90.50
19680;DHT22;9989;48.962;9.182;2022-07-19T02:32:21;19.60;90.60
19680;DHT22;9989;48.962;9.182;2022-07-19T02:34:46;19.60;90.70
19680;DHT22;9989;48.962;9.182;2022-07-19T02:37:12;19.60;90.70
19680;DHT22;9989;48.962;9.182;2022-07-19T02:39:38;19.50;90.70
19680;DHT22;9989;48.962;9.182;2022-07-19T02:42:03;19.50;90.80
19680;DHT22;9989;48.962;9.182;2022-07-19T02:44:29;19.50;90.80
19680;DHT22;9989;48.962;9.182;2022-07-19T02:46:54;19.50;90.90
19680;DHT22;9989;48.962;9.182;2022-07-19T02:49:20;19.60;90.80
19680;DHT22;9989;48.962;9.182;2022-07-19T02:51:46;19.60;90.80
19680;DHT22;9989;48.962;9.182;2022-07-19T02:54:13;19.60;90.80
19680;DHT22;9989;48.962;9.182;2022-07-19T02:56:38;19.60;90.70
19680;DHT22;9989;48.962;9.182;2022-07-19T02:59:05;19.60;90.50
19680;DHT22;9989;48.962;9.182;2022-07-19T03:01:31;19.60;90.20
19680;DHT22;9989;48.962;9.182;2022-07-19T03:03:57;19.60;90.20
19680;DHT22;9989;48.962;9.182;2022-07-19T03:06:23;19.60;90.30
19680;DHT22;9989;48.962;9.182;2022-07-19T03:08:48;19.50;90.40
19680;DHT22;9989;48.962;9.182;2022-07-19T03:11:14;19.60;90.50
19680;DHT22;9989;48.962;9.182;2022-07-19T03:13:40;19.50;90.60
19680;DHT22;9989;48.962;9.182;2022-07-19T03:16:06;19.50;90.60
19680;DHT22;9989;48.962;9.182;2022-07-19T03:18:31;19.40;90.80
19680;DHT22;9989;48.962;9.182;2022-07-19T03:20:57;19.40;90.80
19680;DHT22;9989;48.962;9.182;2022-07-19T03:23:27;19.40;90.80
19680;DHT22;9989;48.962;9.182;2022-07-19T03:25:53;19.30;90.80
19680;DHT22;9989;48.962;9.182;2022-07-19T03:28:19;19.20;91.00
19680;DHT22;9989;48.962;9.182;2022-07-19T03:30:45;19.20;91.10
19680;DHT22;9989;48.962;9.182;2022-07-19T03:33:11;19.10;91.20
19680;DHT22;9989;48.962;9.182;2022-07-19T03:35:41;19.10;91.40
19680;DHT22;9989;48.962;9.182;2022-07-19T03:38:07;19.10;91.60
19680;DHT22;9989;48.962;9.182;2022-07-19T03:40:33;19.10;91.60
19680;DHT22;9989;48.962;9.182;2022-07-19T03:42:58;19.00;91.60
19680;DHT22;9989;48.962;9.182;2022-07-19T03:45:24;19.00;91.70
19680;DHT22;9989;48.962;9.182;2022-07-19T03:47:49;19.00;91.60
19680;DHT22;9989;48.962;9.182;2022-07-19T03:50:15;19.00;91.70
19680;DHT22;9989;48.962;9.182;2022-07-19T03:52:40;19.00;91.60
19680;DHT22;9989;48.962;9.182;2022-07-19T03:55:06;19.00;91.60
19680;DHT22;9989;48.962;9.182;2022-07-19T03:57:32;19.00;91.60
19680;DHT22;9989;48.962;9.182;2022-07-19T03:59:58;19.00;91.70
19680;DHT22;9989;48.962;9.182;2022-07-19T04:02:23;19.00;91.70
19680;DHT22;9989;48.962;9.182;2022-07-19T04:04:49;19.00;91.60
19680;DHT22;9989;48.962;9.182;2022-07-19T04:07:14;19.00;91.80
19680;DHT22;9989;48.962;9.182;2022-07-19T04:09:40;19.00;91.60
19680;DHT22;9989;48.962;9.182;2022-07-19T04:12:05;19.00;91.60
19680;DHT22;9989;48.962;9.182;2022-07-19T04:14:31;19.00;91.70
19680;DHT22;9989;48.962;9.182;2022-07-19T04:16:57;19.00;91.80
19680;DHT22;9989;48.962;9.182;2022-07-19T04:19:22;19.00;92.30
19680;DHT22;9989;48.962;9.182;2022-07-19T04:21:48;19.00;92.00
19680;DHT22;9989;48.962;9.182;2022-07-19T04:24:13;19.00;92.00
19680;DHT22;9989;48.962;9.182;2022-07-19T04:26:39;19.00;92.00
19680;DHT22;9989;48.962;9.182;2022-07-19T04:29:04;19.10;92.10
19680;DHT22;9989;48.962;9.182;2022-07-19T04:31:30;19.10;92.00
19680;DHT22;9989;48.962;9.182;2022-07-19T04:33:55;19.20;92.00
19680;DHT22;9989;48.962;9.182;2022-07-19T04:36:21;19.20;91.60
19680;DHT22;9989;48.962;9.182;2022-07-19T04:38:46;19.30;91.40
19680;DHT22;9989;48.962;9.182;2022-07-19T04:41:12;19.30;91.40
19680;DHT22;9989;48.962;9.182;2022-07-19T04:43:38;19.40;91.40
19680;DHT22;9989;48.962;9.182;2022-07-19T04:46:03;19.40;91.50
19680;DHT22;9989;48.962;9.182;2022-07-19T04:48:29;19.50;91.30
19680;DHT22;9989;48.962;9.182;2022-07-19T04:50:55;19.50;91.30
19680;DHT22;9989;48.962;9.182;2022-07-19T04:53:20;19.60;91.40
19680;DHT22;9989;48.962;9.182;2022-07-19T04:55:46;19.60;91.30
19680;DHT22;9989;48.962;9.182;2022-07-19T04:58:11;19.60;91.30
19680;DHT22;9989;48.962;9.182;2022-07-19T05:00:37;19.70;91.30
19680;DHT22;9989;48.962;9.182;2022-07-19T05:03:02;19.70;91.20
19680;DHT22;9989;48.962;9.182;2022-07-19T05:05:30;19.70;91.20
19680;DHT22;9989;48.962;9.182;2022-07-19T05:07:56;19.80;91.10
19680;DHT22;9989;48.962;9.182;2022-07-19T05:10:21;19.90;91.00
19680;DHT22;9989;48.962;9.182;2022-07-19T05:12:47;19.90;91.20
19680;DHT22;9989;48.962;9.182;2022-07-19T05:15:13;20.00;91.20
19680;DHT22;9989;48.962;9.182;2022-07-19T05:17:39;20.10;91.00
19680;DHT22;9989;48.962;9.182;2022-07-19T05:20:05;20.10;90.90
19680;DHT22;9989;48.962;9.182;2022-07-19T05:22:32;20.20;90.90
19680;DHT22;9989;48.962;9.182;2022-07-19T05:24:58;20.20;90.80
19680;DHT22;9989;48.962;9.182;2022-07-19T05:27:24;20.30;90.90
19680;DHT22;9989;48.962;9.182;2022-07-19T05:29:50;20.30;91.10
19680;DHT22;9989;48.962;9.182;2022-07-19T05:32:16;20.40;91.10
19680;DHT22;9989;48.962;9.182;2022-07-19T05:34:42;20.50;90.80
19680;DHT22;9989;48.962;9.182;2022-07-19T05:37:07;20.50;90.80
19680;DHT22;9989;48.962;9.182;2022-07-19T05:39:33;20.60;90.70
19680;DHT22;9989;48.962;9.182;2022-07-19T05:41:59;20.60;90.40
19680;DHT22;9989;48.962;9.182;2022-07-19T05:44:24;20.70;90.30
19680;DHT22;9989;48.962;9.182;2022-07-19T05:46:50;20.70;90.50
19680;DHT22;9989;48.962;9.182;2022-07-19T05:49:16;20.80;90.50
19680;DHT22;9989;48.962;9.182;2022-07-19T05:51:41;20.80;90.40
19680;DHT22;9989;48.962;9.182;2022-07-19T05:54:07;20.90;90.40
19680;DHT22;9989;48.962;9.182;2022-07-19T05:56:33;21.00;90.20
19680;DHT22;9989;48.962;9.182;2022-07-19T05:58:59;21.00;90.30
19680;DHT22;9989;48.962;9.182;2022-07-19T06:01:26;21.10;90.40
19680;DHT22;9989;48.962;9.182;2022-07-19T06:03:56;21.10;90.20
19680;DHT22;9989;48.962;9.182;2022-07-19T06:06:24;21.20;90.00
19680;DHT22;9989;48.962;9.182;2022-07-19T06:08:50;21.30;90.10
19680;DHT22;9989;48.962;9.182;2022-07-19T06:11:16;21.30;90.10
19680;DHT22;9989;48.962;9.182;2022-07-19T06:13:43;21.40;90.30
19680;DHT22;9989;48.962;9.182;2022-07-19T06:16:09;21.40;90.00
19680;DHT22;9989;48.962;9.182;2022-07-19T06:18:36;21.50;90.00
19680;DHT22;9989;48.962;9.182;2022-07-19T06:21:04;21.50;90.30
19680;DHT22;9989;48.962;9.182;2022-07-19T06:23:30;21.60;88.70
19680;DHT22;9989;48.962;9.182;2022-07-19T06:25:55;21.70;88.00
19680;DHT22;9989;48.962;9.182;2022-07-19T06:28:22;21.70;88.30
19680;DHT22;9989;48.962;9.182;2022-07-19T06:30:47;21.60;88.60
19680;DHT22;9989;48.962;9.182;2022-07-19T06:33:13;21.70;88.60
19680;DHT22;9989;48.962;9.182;2022-07-19T06:35:40;21.70;88.80
19680;DHT22;9989;48.962;9.182;2022-07-19T06:38:06;21.80;88.60
19680;DHT22;9989;48.962;9.182;2022-07-19T06:40:32;21.80;89.20
19680;DHT22;9989;48.962;9.182;2022-07-19T06:42:57;21.90;88.10
19680;DHT22;9989;48.962;9.182;2022-07-19T06:45:23;22.10;87.60
19680;DHT22;9989;48.962;9.182;2022-07-19T06:47:49;22.10;86.90
19680;DHT22;9989;48.962;9.182;2022-07-19T06:50:17;22.20;84.90
19680;DHT22;9989;48.962;9.182;2022-07-19T06:52:42;22.30;84.80
19680;DHT22;9989;48.962;9.182;2022-07-19T06:55:08;22.40;85.00
19680;DHT22;9989;48.962;9.182;2022-07-19T06:57:34;22.50;83.50
19680;DHT22;9989;48.962;9.182;2022-07-19T06:59:59;22.50;83.40
19680;DHT22;9989;48.962;9.182;2022-07-19T07:02:25;22.60;83.50
19680;DHT22;9989;48.962;9.182;2022-07-19T07:04:51;22.70;83.60
19680;DHT22;9989;48.962;9.182;2022-07-19T07:07:16;22.80;83.90
19680;DHT22;9989;48.962;9.182;2022-07-19T07:09:42;22.80;83.50
19680;DHT22;9989;48.962;9.182;2022-07-19T07:12:08;22.90;84.00
19680;DHT22;9989;48.962;9.182;2022-07-19T07:14:34;23.00;84.20
19680;DHT22;9989;48.962;9.182;2022-07-19T07:17:00;23.10;83.70
19680;DHT22;9989;48.962;9.182;2022-07-19T07:19:26;23.30;82.10
19680;DHT22;9989;48.962;9.182;2022-07-19T07:21:52;23.40;82.00
19680;DHT22;9989;48.962;9.182;2022-07-19T07:24:17;23.50;82.20
19680;DHT22;9989;48.962;9.182;2022-07-19T07:26:43;23.60;82.30
19680;DHT22;9989;48.962;9.182;2022-07-19T07:29:08;23.70;81.40
19680;DHT22;9989;48.962;9.182;2022-07-19T07:31:34;23.90;80.60
19680;DHT22;9989;48.962;9.182;2022-07-19T07:34:00;24.00;79.80
19680;DHT22;9989;48.962;9.182;2022-07-19T07:36:25;24.20;80.00
19680;DHT22;9989;48.962;9.182;2022-07-19T07:38:51;24.30;78.80
19680;DHT22;9989;48.962;9.182;2022-07-19T07:41:16;24.40;81.60
19680;DHT22;9989;48.962;9.182;2022-07-19T07:43:42;24.20;82.10
19680;DHT22;9989;48.962;9.182;2022-07-19T07:46:08;23.80;86.80
19680;DHT22;9989;48.962;9.182;2022-07-19T07:48:34;23.50;83.20
19680;DHT22;9989;48.962;9.182;2022-07-19T07:50:59;23.30;82.70
19680;DHT22;9989;48.962;9.182;2022-07-19T07:53:25;23.40;81.30
19680;DHT22;9989;48.962;9.182;2022-07-19T07:55:50;23.50;81.60
19680;DHT22;9989;48.962;9.182;2022-07-19T07:58:16;23.70;82.00
19680;DHT22;9989;48.962;9.182;2022-07-19T08:00:41;24.00;80.60
19680;DHT22;9989;48.962;9.182;2022-07-19T08:03:07;24.30;80.90
19680;DHT22;9989;48.962;9.182;2022-07-19T08:05:33;24.50;79.40
19680;DHT22;9989;48.962;9.182;2022-07-19T08:07:59;24.70;77.90
19680;DHT22;9989;48.962;9.182;2022-07-19T08:10:27;24.90;78.20
19680;DHT22;9989;48.962;9.182;2022-07-19T08:12:53;25.10;77.00
19680;DHT22;9989;48.962;9.182;2022-07-19T08:15:20;25.30;76.90
19680;DHT22;9989;48.962;9.182;2022-07-19T08:17:46;25.50;75.60
19680;DHT22;9989;48.962;9.182;2022-07-19T08:20:11;25.70;75.90
19680;DHT22;9989;48.962;9.182;2022-07-19T08:22:37;25.90;76.70
19680;DHT22;9989;48.962;9.182;2022-07-19T08:25:03;26.00;76.40
19680;DHT22;9989;48.962;9.182;2022-07-19T08:27:29;26.20;74.80
19680;DHT22;9989;48.962;9.182;2022-07-19T08:29:54;26.40;74.70
19680;DHT22;9989;48.962;9.182;2022-07-19T08:32:20;26.60;72.50
19680;DHT22;9989;48.962;9.182;2022-07-19T08:34:46;26.80;72.00
19680;DHT22;9989;48.962;9.182;2022-07-19T08:37:11;27.00;71.70
19680;DHT22;9989;48.962;9.182;2022-07-19T08:39:37;27.20;70.00
19680;DHT22;9989;48.962;9.182;2022-07-19T08:42:02;27.40;68.10
19680;DHT22;9989;48.962;9.182;2022-07-19T08:44:29;27.50;67.50
19680;DHT22;9989;48.962;9.182;2022-07-19T08:46:55;27.80;67.80
19680;DHT22;9989;48.962;9.182;2022-07-19T08:49:21;28.00;64.10
19680;DHT22;9989;48.962;9.182;2022-07-19T08:51:47;28.10;63.40
19680;DHT22;9989;48.962;9.182;2022-07-19T08:54:14;28.30;59.80
19680;DHT22;9989;48.962;9.182;2022-07-19T08:56:40;28.40;60.10
19680;DHT22;9989;48.962;9.182;2022-07-19T08:59:24;28.50;61.90
19680;DHT22;9989;48.962;9.182;2022-07-19T09:01:50;28.60;60.40
19680;DHT22;9989;48.962;9.182;2022-07-19T09:04:20;28.70;59.90
19680;DHT22;9989;48.962;9.182;2022-07-19T09:06:48;28.90;56.60
19680;DHT22;9989;48.962;9.182;2022-07-19T09:09:16;29.10;54.40
19680;DHT22;9989;48.962;9.182;2022-07-19T09:11:45;29.40;54.00
19680;DHT22;9989;48.962;9.182;2022-07-19T09:14:31;29.70;52.60
19680;DHT22;9989;48.962;9.182;2022-07-19T09:17:08;29.90;52.10
19680;DHT22;9989;48.962;9.182;2022-07-19T09:19:43;30.00;51.10
19680;DHT22;9989;48.962;9.182;2022-07-19T09:22:17;30.20;51.30
19680;DHT22;9989;48.962;9.182;2022-07-19T09:24:46;30.30;50.70
19680;DHT22;9989;48.962;9.182;2022-07-19T09:27:18;30.40;50.80
19680;DHT22;9989;48.962;9.182;2022-07-19T09:29:46;30.50;50.50
19680;DHT22;9989;48.962;9.182;2022-07-19T09:32:13;30.60;49.10
19680;DHT22;9989;48.962;9.182;2022-07-19T09:37:18;30.70;49.00
19680;DHT22;9989;48.962;9.182;2022-07-19T09:39:47;30.70;49.20
19680;DHT22;9989;48.962;9.182;2022-07-19T09:42:19;30.80;49.20
19680;DHT22;9989;48.962;9.182;2022-07-19T09:44:45;31.00;48.80
19680;DHT22;9989;48.962;9.182;2022-07-19T09:47:11;31.00;48.30
19680;DHT22;9989;48.962;9.182;2022-07-19T09:49:37;31.10;48.40
19680;DHT22;9989;48.962;9.182;2022-07-19T09:52:03;31.20;48.80
19680;DHT22;9989;48.962;9.182;2022-07-19T09:54:29;31.30;49.00
19680;DHT22;9989;48.962;9.182;2022-07-19T09:56:56;31.40;47.40
19680;DHT22;9989;48.962;9.182;2022-07-19T09:59:23;31.40;47.80
19680;DHT22;9989;48.962;9.182;2022-07-19T10:01:52;31.50;47.50
19680;DHT22;9989;48.962;9.182;2022-07-19T10:04:20;31.60;47.10
19680;DHT22;9989;48.962;9.182;2022-07-19T10:06:47;31.60;47.40
19680;DHT22;9989;48.962;9.182;2022-07-19T10:09:15;31.70;47.60
19680;DHT22;9989;48.962;9.182;2022-07-19T10:11:41;31.80;47.60
19680;DHT22;9989;48.962;9.182;2022-07-19T10:14:08;31.90;47.00
19680;DHT22;9989;48.962;9.182;2022-07-19T10:19:39;32.10;45.30
19680;DHT22;9989;48.962;9.182;2022-07-19T10:22:11;32.20;44.90
19680;DHT22;9989;48.962;9.182;2022-07-19T10:27:08;32.20;44.50
19680;DHT22;9989;48.962;9.182;2022-07-19T10:29:33;32.20;45.30
19680;DHT22;9989;48.962;9.182;2022-07-19T10:32:07;32.30;46.00
19680;DHT22;9989;48.962;9.182;2022-07-19T10:34:34;32.40;45.00
19680;DHT22;9989;48.962;9.182;2022-07-19T10:37:00;32.50;44.40
19680;DHT22;9989;48.962;9.182;2022-07-19T10:50:08;32.80;44.60
19680;DHT22;9989;48.962;9.182;2022-07-19T10:52:36;32.90;43.40
19680;DHT22;9989;48.962;9.182;2022-07-19T11:00:26;33.10;43.80
19680;DHT22;9989;48.962;9.182;2022-07-19T11:03:38;33.30;43.40
19680;DHT22;9989;48.962;9.182;2022-07-19T11:08:15;33.30;42.70
19680;DHT22;9989;48.962;9.182;2022-07-19T11:10:41;33.40;43.60
19680;DHT22;9989;48.962;9.182;2022-07-19T11:13:06;33.40;43.50
19680;DHT22;9989;48.962;9.182;2022-07-19T11:15:33;33.50;43.50
19680;DHT22;9989;48.962;9.182;2022-07-19T11:20:30;33.60;42.20
19680;DHT22;9989;48.962;9.182;2022-07-19T11:22:58;33.50;43.40
19680;DHT22;9989;48.962;9.182;2022-07-19T11:25:29;33.70;43.10
19680;DHT22;9989;48.962;9.182;2022-07-19T11:27:55;33.80;42.90
19680;DHT22;9989;48.962;9.182;2022-07-19T11:30:22;33.90;42.30
19680;DHT22;9989;48.962;9.182;2022-07-19T11:32:57;34.00;42.20
19680;DHT22;9989;48.962;9.182;2022-07-19T11:35:23;34.00;41.90
19680;DHT22;9989;48.962;9.182;2022-07-19T11:37:52;34.00;41.50
19680;DHT22;9989;48.962;9.182;2022-07-19T11:40:18;34.00;41.50
19680;DHT22;9989;48.962;9.182;2022-07-19T11:42:47;34.10;41.80
19680;DHT22;9989;48.962;9.182;2022-07-19T11:45:25;34.10;41.00
19680;DHT22;9989;48.962;9.182;2022-07-19T11:47:53;34.20;40.10
19680;DHT22;9989;48.962;9.182;2022-07-19T11:50:23;34.20;40.90
19680;DHT22;9989;48.962;9.182;2022-07-19T11:52:57;34.20;40.90
19680;DHT22;9989;48.962;9.182;2022-07-19T11:55:27;34.20;41.30
19680;DHT22;9989;48.962;9.182;2022-07-19T11:57:54;34.30;41.00
19680;DHT22;9989;48.962;9.182;2022-07-19T12:00:21;34.30;40.70
19680;DHT22;9989;48.962;9.182;2022-07-19T12:03:01;34.40;40.80
19680;DHT22;9989;48.962;9.182;2022-07-19T12:05:36;34.40;40.00
19680;DHT22;9989;48.962;9.182;2022-07-19T12:08:07;34.40;40.20
19680;DHT22;9989;48.962;9.182;2022-07-19T12:13:06;34.50;41.90
19680;DHT22;9989;48.962;9.182;2022-07-19T12:15:50;34.50;40.70
19680;DHT22;9989;48.962;9.182;2022-07-19T12:18:17;34.50;39.90
19680;DHT22;9989;48.962;9.182;2022-07-19T12:23:28;34.60;38.70
19680;DHT22;9989;48.962;9.182;2022-07-19T12:26:02;34.60;39.40
19680;DHT22;9989;48.962;9.182;2022-07-19T12:28:28;34.60;39.30
19680;DHT22;9989;48.962;9.182;2022-07-19T12:31:04;34.70;39.40
19680;DHT22;9989;48.962;9.182;2022-07-19T12:33:30;34.80;39.30
19680;DHT22;9989;48.962;9.182;2022-07-19T12:35:56;34.80;39.40
19680;DHT22;9989;48.962;9.182;2022-07-19T12:38:31;34.80;39.30
19680;DHT22;9989;48.962;9.182;2022-07-19T12:41:07;34.80;40.10
19680;DHT22;9989;48.962;9.182;2022-07-19T12:43:35;34.90;39.40
19680;DHT22;9989;48.962;9.182;2022-07-19T12:46:00;35.00;39.50
19680;DHT22;9989;48.962;9.182;2022-07-19T12:48:27;35.00;39.40
19680;DHT22;9989;48.962;9.182;2022-07-19T12:50:53;35.10;38.70
19680;DHT22;9989;48.962;9.182;2022-07-19T12:53:19;35.10;38.60
19680;DHT22;9989;48.962;9.182;2022-07-19T12:55:46;35.20;38.90
19680;DHT22;9989;48.962;9.182;2022-07-19T12:58:14;35.30;38.70
19680;DHT22;9989;48.962;9.182;2022-07-19T13:01:00;35.40;37.10
19680;DHT22;9989;48.962;9.182;2022-07-19T13:03:26;35.40;37.20
19680;DHT22;9989;48.962;9.182;2022-07-19T13:05:51;35.40;36.80
19680;DHT22;9989;48.962;9.182;2022-07-19T13:08:17;35.30;37.60
19680;DHT22;9989;48.962;9.182;2022-07-19T13:10:42;35.30;38.70
19680;DHT22;9989;48.962;9.182;2022-07-19T13:13:09;35.30;39.00
19680;DHT22;9989;48.962;9.182;2022-07-19T13:15:35;35.40;37.40
19680;DHT22;9989;48.962;9.182;2022-07-19T13:18:00;35.40;38.40
19680;DHT22;9989;48.962;9.182;2022-07-19T13:20:27;35.40;38.40
19680;DHT22;9989;48.962;9.182;2022-07-19T13:22:53;35.40;38.80
19680;DHT22;9989;48.962;9.182;2022-07-19T13:25:19;35.40;39.50
19680;DHT22;9989;48.962;9.182;2022-07-19T13:27:45;35.50;39.30
19680;DHT22;9989;48.962;9.182;2022-07-19T13:30:10;35.50;38.40
19680;DHT22;9989;48.962;9.182;2022-07-19T13:32:36;35.50;38.00
19680;DHT22;9989;48.962;9.182;2022-07-19T13:35:02;35.40;37.90
19680;DHT22;9989;48.962;9.182;2022-07-19T13:37:28;35.30;37.90
19680;DHT22;9989;48.962;9.182;2022-07-19T13:39:54;35.30;38.80
19680;DHT22;9989;48.962;9.182;2022-07-19T13:42:19;35.30;39.90
19680;DHT22;9989;48.962;9.182;2022-07-19T13:44:45;35.40;38.80
19680;DHT22;9989;48.962;9.182;2022-07-19T13:47:10;35.50;38.80
19680;DHT22;9989;48.962;9.182;2022-07-19T13:49:36;35.60;39.10
19680;DHT22;9989;48.962;9.182;2022-07-19T13:52:02;35.60;38.20
19680;DHT22;9989;48.962;9.182;2022-07-19T13:54:27;35.60;38.70
19680;DHT22;9989;48.962;9.182;2022-07-19T13:56:53;35.60;38.50
19680;DHT22;9989;48.962;9.182;2022-07-19T13:59:19;35.50;39.00
19680;DHT22;9989;48.962;9.182;2022-07-19T14:01:46;35.50;38.80
19680;DHT22;9989;48.962;9.182;2022-07-19T14:04:11;35.50;39.50
19680;DHT22;9989;48.962;9.182;2022-07-19T14:06:37;35.50;39.00
19680;DHT22;9989;48.962;9.182;2022-07-19T14:09:03;35.50;39.30
19680;DHT22;9989;48.962;9.182;2022-07-19T14:11:28;35.50;39.30
19680;DHT22;9989;48.962;9.182;2022-07-19T14:13:54;35.50;39.30
19680;DHT22;9989;48.962;9.182;2022-07-19T14:16:20;35.60;38.90
19680;DHT22;9989;48.962;9.182;2022-07-19T14:18:45;35.60;38.30
19680;DHT22;9989;48.962;9.182;2022-07-19T14:21:11;35.70;39.00
19680;DHT22;9989;48.962;9.182;2022-07-19T14:23:37;35.70;38.70
19680;DHT22;9989;48.962;9.182;2022-07-19T14:26:02;35.80;38.90
19680;DHT22;9989;48.962;9.182;2022-07-19T14:28:28;35.80;38.40
19680;DHT22;9989;48.962;9.182;2022-07-19T14:30:54;35.90;38.60
19680;DHT22;9989;48.962;9.182;2022-07-19T14:33:19;35.90;37.60
19680;DHT22;9989;48.962;9.182;2022-07-19T14:35:45;35.80;37.60
19680;DHT22;9989;48.962;9.182;2022-07-19T14:38:11;35.80;37.50
19680;DHT22;9989;48.962;9.182;2022-07-19T14:40:37;35.80;38.40
19680;DHT22;9989;48.962;9.182;2022-07-19T14:43:03;35.70;38.30
19680;DHT22;9989;48.962;9.182;2022-07-19T14:45:29;35.80;38.20
19680;DHT22;9989;48.962;9.182;2022-07-19T14:47:55;35.80;38.50
19680;DHT22;9989;48.962;9.182;2022-07-19T14:50:21;35.80;38.10
19680;DHT22;9989;48.962;9.182;2022-07-19T14:52:47;35.80;38.20
19680;DHT22;9989;48.962;9.182;2022-07-19T14:55:13;35.90;38.30
19680;DHT22;9989;48.962;9.182;2022-07-19T14:57:38;35.90;37.30
19680;DHT22;9989;48.962;9.182;2022-07-19T15:00:07;35.80;38.30
19680;DHT22;9989;48.962;9.182;2022-07-19T15:02:33;35.70;38.90
19680;DHT22;9989;48.962;9.182;2022-07-19T15:04:59;35.70;38.00
19680;DHT22;9989;48.962;9.182;2022-07-19T15:07:25;35.70;38.90
19680;DHT22;9989;48.962;9.182;2022-07-19T15:09:51;35.70;38.10
19680;DHT22;9989;48.962;9.182;2022-07-19T15:12:17;35.70;38.30
19680;DHT22;9989;48.962;9.182;2022-07-19T15:14:43;35.70;38.70
19680;DHT22;9989;48.962;9.182;2022-07-19T15:17:09;35.60;38.00
19680;DHT22;9989;48.962;9.182;2022-07-19T15:19:34;35.60;37.60
19680;DHT22;9989;48.962;9.182;2022-07-19T15:22:00;35.70;37.10
19680;DHT22;9989;48.962;9.182;2022-07-19T15:24:26;35.70;38.10
19680;DHT22;9989;48.962;9.182;2022-07-19T15:26:51;35.60;37.60
19680;DHT22;9989;48.962;9.182;2022-07-19T15:29:17;35.60;37.20
19680;DHT22;9989;48.962;9.182;2022-07-19T15:31:43;35.50;37.00
19680;DHT22;9989;48.962;9.182;2022-07-19T15:34:09;35.50;37.50
19680;DHT22;9989;48.962;9.182;2022-07-19T15:36:35;35.40;37.70
19680;DHT22;9989;48.962;9.182;2022-07-19T15:39:01;35.40;38.50
19680;DHT22;9989;48.962;9.182;2022-07-19T15:41:26;35.40;38.30
19680;DHT22;9989;48.962;9.182;2022-07-19T15:43:52;35.40;38.50
19680;DHT22;9989;48.962;9.182;2022-07-19T15:46:18;35.40;38.30
19680;DHT22;9989;48.962;9.182;2022-07-19T15:48:44;35.40;38.40
19680;DHT22;9989;48.962;9.182;2022-07-19T15:51:10;35.40;38.10
19680;DHT22;9989;48.962;9.182;2022-07-19T15:53:36;35.40;38.00
19680;DHT22;9989;48.962;9.182;2022-07-19T15:56:03;35.40;37.50
19680;DHT22;9989;48.962;9.182;2022-07-19T15:58:29;35.40;37.50
19680;DHT22;9989;48.962;9.182;2022-07-19T16:00:54;35.40;37.90
19680;DHT22;9989;48.962;9.182;2022-07-19T16:03:20;35.40;37.60
19680;DHT22;9989;48.962;9.182;2022-07-19T16:05:46;35.40;37.60
19680;DHT22;9989;48.962;9.182;2022-07-19T16:08:12;35.40;37.70
19680;DHT22;9989;48.962;9.182;2022-07-19T16:10:38;35.40;37.10
19680;DHT22;9989;48.962;9.182;2022-07-19T16:13:04;35.40;37.60
19680;DHT22;9989;48.962;9.182;2022-07-19T16:15:30;35.30;37.50